sensor_id;sensor_type;location;lat;lon;timestamp;P1;durP1;ratioP1;P2;durP2;ratioP2
35839;SDS011;35514;50.504;30.500;2023-01-09T00:01:36;18.98;;;8.20;;
35839;SDS011;35514;50.504;30.500;2023-01-09T00:04:04;29.95;;;9.75;;
35839;SDS011;35514;50.504;30.500;2023-01-09T00:06:32;35.85;;;9.65;;
35839;SDS011;35514;50.504;30.500;2023-01-09T00:09:00;29.20;;;8.98;;
35839;SDS011;35514;50.504;30.500;2023-01-09T00:11:28;15.18;;;6.75;;
35839;SDS011;35514;50.504;30.500;2023-01-09T00:13:57;15.85;;;6.82;;
35839;SDS011;35514;50.504;30.500;2023-01-09T00:16:24;25.92;;;8.18;;
35839;SDS011;35514;50.504;30.500;2023-01-09T00:18:52;18.67;;;8.50;;
35839;SDS011;35514;50.504;30.500;2023-01-09T00:21:20;21.42;;;8.90;;
35839;SDS011;35514;50.504;30.500;2023-01-09T00:23:48;30.13;;;9.05;;
35839;SDS011;35514;50.504;30.500;2023-01-09T00:26:16;27.38;;;8.55;;
35839;SDS011;35514;50.504;30.500;2023-01-09T00:28:44;25.75;;;9.15;;
35839;SDS011;35514;50.504;30.500;2023-01-09T00:31:14;27.95;;;9.55;;
35839;SDS011;35514;50.504;30.500;2023-01-09T00:33:42;28.77;;;9.30;;
35839;SDS011;35514;50.504;30.500;2023-01-09T00:36:13;18.20;;;6.97;;
35839;SDS011;35514;50.504;30.500;2023-01-09T00:38:40;27.40;;;8.20;;
35839;SDS011;35514;50.504;30.500;2023-01-09T00:41:09;25.33;;;7.25;;
35839;SDS011;35514;50.504;30.500;2023-01-09T00:43:39;28.40;;;7.80;;
35839;SDS011;35514;50.504;30.500;2023-01-09T00:46:08;33.70;;;8.40;;
35839;SDS011;35514;50.504;30.500;2023-01-09T00:48:38;26.05;;;7.25;;
35839;SDS011;35514;50.504;30.500;2023-01-09T00:51:07;30.90;;;8.60;;
35839;SDS011;35514;50.504;30.500;2023-01-09T00:53:35;23.80;;;8.68;;
35839;SDS011;35514;50.504;30.500;2023-01-09T00:56:04;28.38;;;7.70;;
35839;SDS011;35514;50.504;30.500;2023-01-09T00:58:33;20.92;;;7.65;;
35839;SDS011;35514;50.504;30.500;2023-01-09T01:01:01;31.83;;;9.05;;
35839;SDS011;35514;50.504;30.500;2023-01-09T01:03:29;21.13;;;7.88;;
35839;SDS011;35514;50.504;30.500;2023-01-09T01:05:58;24.17;;;8.98;;
35839;SDS011;35514;50.504;30.500;2023-01-09T01:08:43;26.33;;;8.68;;
35839;SDS011;35514;50.504;30.500;2023-01-09T01:11:10;27.17;;;8.05;;
35839;SDS011;35514;50.504;30.500;2023-01-09T01:13:39;27.67;;;8.48;;
35839;SDS011;35514;50.504;30.500;2023-01-09T01:16:08;27.50;;;7.28;;
35839;SDS011;35514;50.504;30.500;2023-01-09T01:18:36;18.90;;;6.80;;
35839;SDS011;35514;50.504;30.500;2023-01-09T01:21:06;28.38;;;7.70;;
35839;SDS011;35514;50.504;30.500;2023-01-09T01:23:34;22.88;;;8.30;;
35839;SDS011;35514;50.504;30.500;2023-01-09T01:26:03;21.40;;;7.65;;
35839;SDS011;35514;50.504;30.500;2023-01-09T01:28:31;28.90;;;8.13;;
35839;SDS011;35514;50.504;30.500;2023-01-09T01:30:58;24.80;;;7.07;;
35839;SDS011;35514;50.504;30.500;2023-01-09T01:33:26;17.65;;;6.10;;
35839;SDS011;35514;50.504;30.500;2023-01-09T01:36:00;23.90;;;7.13;;
35839;SDS011;35514;50.504;30.500;2023-01-09T01:38:30;23.90;;;6.88;;
35839;SDS011;35514;50.504;30.500;2023-01-09T01:40:58;31.23;;;6.25;;
35839;SDS011;35514;50.504;30.500;2023-01-09T01:43:26;17.05;;;6.25;;
35839;SDS011;35514;50.504;30.500;2023-01-09T01:45:54;22.38;;;6.65;;
35839;SDS011;35514;50.504;30.500;2023-01-09T01:48:23;34.45;;;7.97;;
35839;SDS011;35514;50.504;30.500;2023-01-09T01:50:54;14.23;;;5.78;;
35839;SDS011;35514;50.504;30.500;2023-01-09T01:53:25;21.83;;;8.32;;
35839;SDS011;35514;50.504;30.500;2023-01-09T01:55:57;21.50;;;7.30;;
35839;SDS011;35514;50.504;30.500;2023-01-09T01:58:27;23.55;;;6.00;;
35839;SDS011;35514;50.504;30.500;2023-01-09T02:00:56;35.35;;;8.80;;
35839;SDS011;35514;50.504;30.500;2023-01-09T02:03:25;22.75;;;7.07;;
35839;SDS011;35514;50.504;30.500;2023-01-09T02:05:53;28.10;;;7.43;;
35839;SDS011;35514;50.504;30.500;2023-01-09T02:08:21;16.33;;;6.22;;
35839;SDS011;35514;50.504;30.500;2023-01-09T02:10:49;26.88;;;6.72;;
35839;SDS011;35514;50.504;30.500;2023-01-09T02:13:18;10.75;;;5.60;;
35839;SDS011;35514;50.504;30.500;2023-01-09T02:15:50;16.30;;;6.72;;
35839;SDS011;35514;50.504;30.500;2023-01-09T02:18:24;19.90;;;6.75;;
35839;SDS011;35514;50.504;30.500;2023-01-09T02:20:56;17.35;;;6.88;;
35839;SDS011;35514;50.504;30.500;2023-01-09T02:23:46;19.90;;;6.47;;
35839;SDS011;35514;50.504;30.500;2023-01-09T02:26:22;23.17;;;7.35;;
35839;SDS011;35514;50.504;30.500;2023-01-09T02:29:07;16.63;;;6.32;;
35839;SDS011;35514;50.504;30.500;2023-01-09T02:31:42;18.77;;;6.40;;
35839;SDS011;35514;50.504;30.500;2023-01-09T02:34:13;13.33;;;6.07;;
35839;SDS011;35514;50.504;30.500;2023-01-09T02:36:43;19.05;;;5.90;;
35839;SDS011;35514;50.504;30.500;2023-01-09T02:39:16;19.92;;;6.00;;
35839;SDS011;35514;50.504;30.500;2023-01-09T02:41:45;18.15;;;7.05;;
35839;SDS011;35514;50.504;30.500;2023-01-09T02:44:15;15.65;;;5.55;;
35839;SDS011;35514;50.504;30.500;2023-01-09T02:46:44;18.92;;;6.22;;
35839;SDS011;35514;50.504;30.500;2023-01-09T02:49:13;16.88;;;7.80;;
35839;SDS011;35514;50.504;30.500;2023-01-09T02:51:44;15.40;;;6.00;;
35839;SDS011;35514;50.504;30.500;2023-01-09T02:54:19;19.95;;;5.95;;
35839;SDS011;35514;50.504;30.500;2023-01-09T02:56:53;18.80;;;6.30;;
35839;SDS011;35514;50.504;30.500;2023-01-09T02:59:24;16.67;;;5.70;;
35839;SDS011;35514;50.504;30.500;2023-01-09T03:02:01;14.18;;;4.93;;
35839;SDS011;35514;50.504;30.500;2023-01-09T03:04:36;11.30;;;4.88;;
35839;SDS011;35514;50.504;30.500;2023-01-09T03:07:10;20.35;;;5.35;;
35839;SDS011;35514;50.504;30.500;2023-01-09T03:09:40;13.45;;;6.35;;
35839;SDS011;35514;50.504;30.500;2023-01-09T03:12:10;26.27;;;7.03;;
35839;SDS011;35514;50.504;30.500;2023-01-09T03:14:43;23.85;;;5.45;;
35839;SDS011;35514;50.504;30.500;2023-01-09T03:17:14;20.00;;;5.53;;
35839;SDS011;35514;50.504;30.500;2023-01-09T03:19:42;17.48;;;6.30;;
35839;SDS011;35514;50.504;30.500;2023-01-09T03:22:11;16.52;;;5.97;;
35839;SDS011;35514;50.504;30.500;2023-01-09T03:24:39;19.48;;;6.13;;
35839;SDS011;35514;50.504;30.500;2023-01-09T03:27:07;16.63;;;5.60;;
35839;SDS011;35514;50.504;30.500;2023-01-09T03:29:35;14.98;;;4.75;;
35839;SDS011;35514;50.504;30.500;2023-01-09T03:32:03;20.63;;;5.85;;
35839;SDS011;35514;50.504;30.500;2023-01-09T03:34:33;12.32;;;4.53;;
35839;SDS011;35514;50.504;30.500;2023-01-09T03:37:00;29.38;;;6.28;;
35839;SDS011;35514;50.504;30.500;2023-01-09T03:39:29;17.15;;;5.95;;
35839;SDS011;35514;50.504;30.500;2023-01-09T03:41:57;17.83;;;5.38;;
35839;SDS011;35514;50.504;30.500;2023-01-09T03:44:24;15.25;;;4.85;;
35839;SDS011;35514;50.504;30.500;2023-01-09T03:46:52;13.25;;;5.43;;
35839;SDS011;35514;50.504;30.500;2023-01-09T03:49:20;20.58;;;7.22;;
35839;SDS011;35514;50.504;30.500;2023-01-09T03:51:49;15.68;;;5.90;;
35839;SDS011;35514;50.504;30.500;2023-01-09T03:54:17;20.50;;;5.60;;
35839;SDS011;35514;50.504;30.500;2023-01-09T03:56:44;19.67;;;6.88;;
35839;SDS011;35514;50.504;30.500;2023-01-09T03:59:12;16.85;;;5.68;;
35839;SDS011;35514;50.504;30.500;2023-01-09T04:01:40;15.02;;;5.55;;
35839;SDS011;35514;50.504;30.500;2023-01-09T04:04:07;10.02;;;5.13;;
35839;SDS011;35514;50.504;30.500;2023-01-09T04:06:35;11.32;;;5.00;;
35839;SDS011;35514;50.504;30.500;2023-01-09T04:09:04;13.48;;;4.78;;
35839;SDS011;35514;50.504;30.500;2023-01-09T04:11:32;14.63;;;5.13;;
35839;SDS011;35514;50.504;30.500;2023-01-09T04:14:00;17.80;;;5.88;;
35839;SDS011;35514;50.504;30.500;2023-01-09T04:16:27;14.27;;;6.35;;
35839;SDS011;35514;50.504;30.500;2023-01-09T04:18:55;27.17;;;6.55;;
35839;SDS011;35514;50.504;30.500;2023-01-09T04:21:23;11.13;;;5.32;;
35839;SDS011;35514;50.504;30.500;2023-01-09T04:24:06;18.67;;;6.13;;
35839;SDS011;35514;50.504;30.500;2023-01-09T04:26:33;23.55;;;6.88;;
35839;SDS011;35514;50.504;30.500;2023-01-09T04:29:01;23.77;;;5.88;;
35839;SDS011;35514;50.504;30.500;2023-01-09T04:31:31;18.67;;;5.95;;
35839;SDS011;35514;50.504;30.500;2023-01-09T04:33:59;9.50;;;5.07;;
35839;SDS011;35514;50.504;30.500;2023-01-09T04:36:28;16.95;;;6.65;;
35839;SDS011;35514;50.504;30.500;2023-01-09T04:38:57;16.63;;;6.18;;
35839;SDS011;35514;50.504;30.500;2023-01-09T04:41:26;25.83;;;7.15;;
35839;SDS011;35514;50.504;30.500;2023-01-09T04:44:11;18.33;;;6.40;;
35839;SDS011;35514;50.504;30.500;2023-01-09T04:46:38;14.88;;;6.60;;
35839;SDS011;35514;50.504;30.500;2023-01-09T04:49:09;18.45;;;6.47;;
35839;SDS011;35514;50.504;30.500;2023-01-09T04:51:38;19.30;;;6.15;;
35839;SDS011;35514;50.504;30.500;2023-01-09T04:54:05;19.80;;;7.40;;
35839;SDS011;35514;50.504;30.500;2023-01-09T04:56:35;20.23;;;6.82;;
35839;SDS011;35514;50.504;30.500;2023-01-09T04:59:03;17.98;;;6.40;;
35839;SDS011;35514;50.504;30.500;2023-01-09T05:01:31;12.50;;;4.97;;
35839;SDS011;35514;50.504;30.500;2023-01-09T05:03:59;13.23;;;5.78;;
35839;SDS011;35514;50.504;30.500;2023-01-09T05:06:26;14.50;;;5.72;;
35839;SDS011;35514;50.504;30.500;2023-01-09T05:08:54;17.35;;;6.53;;
35839;SDS011;35514;50.504;30.500;2023-01-09T05:11:22;17.70;;;7.03;;
35839;SDS011;35514;50.504;30.500;2023-01-09T05:13:52;16.23;;;7.15;;
35839;SDS011;35514;50.504;30.500;2023-01-09T05:16:19;13.65;;;7.10;;
35839;SDS011;35514;50.504;30.500;2023-01-09T05:18:51;16.08;;;6.55;;
35839;SDS011;35514;50.504;30.500;2023-01-09T05:21:22;19.20;;;7.80;;
35839;SDS011;35514;50.504;30.500;2023-01-09T05:23:49;15.27;;;6.88;;
35839;SDS011;35514;50.504;30.500;2023-01-09T05:26:17;19.33;;;6.03;;
35839;SDS011;35514;50.504;30.500;2023-01-09T05:28:48;15.95;;;6.45;;
35839;SDS011;35514;50.504;30.500;2023-01-09T05:31:17;18.38;;;7.88;;
35839;SDS011;35514;50.504;30.500;2023-01-09T05:33:45;17.02;;;6.97;;
35839;SDS011;35514;50.504;30.500;2023-01-09T05:36:13;15.63;;;6.63;;
35839;SDS011;35514;50.504;30.500;2023-01-09T05:38:42;25.75;;;7.28;;
35839;SDS011;35514;50.504;30.500;2023-01-09T05:41:11;21.05;;;7.75;;
35839;SDS011;35514;50.504;30.500;2023-01-09T05:43:39;16.80;;;6.93;;
35839;SDS011;35514;50.504;30.500;2023-01-09T05:46:07;20.27;;;8.20;;
35839;SDS011;35514;50.504;30.500;2023-01-09T05:48:36;19.52;;;6.55;;
35839;SDS011;35514;50.504;30.500;2023-01-09T05:51:04;28.88;;;8.05;;
35839;SDS011;35514;50.504;30.500;2023-01-09T05:53:32;20.48;;;7.50;;
35839;SDS011;35514;50.504;30.500;2023-01-09T05:55:59;24.48;;;6.35;;
35839;SDS011;35514;50.504;30.500;2023-01-09T05:58:27;19.75;;;6.63;;
35839;SDS011;35514;50.504;30.500;2023-01-09T06:00:56;20.77;;;7.25;;
35839;SDS011;35514;50.504;30.500;2023-01-09T06:03:24;8.85;;;5.13;;
35839;SDS011;35514;50.504;30.500;2023-01-09T06:05:55;21.95;;;6.88;;
35839;SDS011;35514;50.504;30.500;2023-01-09T06:08:23;16.67;;;6.85;;
35839;SDS011;35514;50.504;30.500;2023-01-09T06:10:51;16.35;;;7.68;;
35839;SDS011;35514;50.504;30.500;2023-01-09T06:13:19;13.63;;;6.72;;
35839;SDS011;35514;50.504;30.500;2023-01-09T06:15:46;16.50;;;6.63;;
35839;SDS011;35514;50.504;30.500;2023-01-09T06:18:14;18.20;;;7.57;;
35839;SDS011;35514;50.504;30.500;2023-01-09T06:20:43;26.63;;;6.38;;
35839;SDS011;35514;50.504;30.500;2023-01-09T06:23:12;17.10;;;6.53;;
35839;SDS011;35514;50.504;30.500;2023-01-09T06:25:39;22.88;;;7.25;;
35839;SDS011;35514;50.504;30.500;2023-01-09T06:28:07;12.77;;;5.28;;
35839;SDS011;35514;50.504;30.500;2023-01-09T06:30:35;17.17;;;7.22;;
35839;SDS011;35514;50.504;30.500;2023-01-09T06:33:02;14.45;;;6.80;;
35839;SDS011;35514;50.504;30.500;2023-01-09T06:35:30;17.27;;;8.02;;
35839;SDS011;35514;50.504;30.500;2023-01-09T06:45:07;16.10;;;7.18;;
35839;SDS011;35514;50.504;30.500;2023-01-09T06:47:36;15.30;;;6.80;;
35839;SDS011;35514;50.504;30.500;2023-01-09T06:50:04;14.65;;;6.38;;
35839;SDS011;35514;50.504;30.500;2023-01-09T06:52:32;17.90;;;6.80;;
35839;SDS011;35514;50.504;30.500;2023-01-09T06:55:00;18.98;;;7.25;;
35839;SDS011;35514;50.504;30.500;2023-01-09T06:57:30;13.50;;;5.95;;
35839;SDS011;35514;50.504;30.500;2023-01-09T06:59:58;17.83;;;5.68;;
35839;SDS011;35514;50.504;30.500;2023-01-09T07:02:27;18.30;;;7.93;;
35839;SDS011;35514;50.504;30.500;2023-01-09T07:04:55;16.85;;;6.75;;
35839;SDS011;35514;50.504;30.500;2023-01-09T07:07:22;14.63;;;7.18;;
35839;SDS011;35514;50.504;30.500;2023-01-09T07:09:50;17.92;;;7.63;;
35839;SDS011;35514;50.504;30.500;2023-01-09T07:12:18;29.85;;;7.90;;
35839;SDS011;35514;50.504;30.500;2023-01-09T07:14:46;17.17;;;7.25;;
35839;SDS011;35514;50.504;30.500;2023-01-09T07:17:13;30.05;;;8.52;;
35839;SDS011;35514;50.504;30.500;2023-01-09T07:19:42;13.18;;;5.13;;
35839;SDS011;35514;50.504;30.500;2023-01-09T07:22:10;20.33;;;7.80;;
35839;SDS011;35514;50.504;30.500;2023-01-09T07:24:39;18.85;;;8.00;;
35839;SDS011;35514;50.504;30.500;2023-01-09T07:27:10;20.92;;;7.75;;
35839;SDS011;35514;50.504;30.500;2023-01-09T07:29:38;25.08;;;6.70;;
35839;SDS011;35514;50.504;30.500;2023-01-09T07:32:16;18.08;;;6.88;;
35839;SDS011;35514;50.504;30.500;2023-01-09T07:34:45;17.27;;;7.50;;
35839;SDS011;35514;50.504;30.500;2023-01-09T07:37:14;20.55;;;7.47;;
35839;SDS011;35514;50.504;30.500;2023-01-09T07:39:45;16.83;;;6.82;;
35839;SDS011;35514;50.504;30.500;2023-01-09T07:42:13;29.88;;;7.97;;
35839;SDS011;35514;50.504;30.500;2023-01-09T07:44:41;23.75;;;7.72;;
35839;SDS011;35514;50.504;30.500;2023-01-09T07:47:08;17.92;;;7.10;;
35839;SDS011;35514;50.504;30.500;2023-01-09T07:49:36;27.42;;;7.63;;
35839;SDS011;35514;50.504;30.500;2023-01-09T07:52:05;21.23;;;7.55;;
35839;SDS011;35514;50.504;30.500;2023-01-09T07:54:33;26.85;;;8.93;;
35839;SDS011;35514;50.504;30.500;2023-01-09T07:57:02;22.25;;;8.00;;
35839;SDS011;35514;50.504;30.500;2023-01-09T07:59:30;25.42;;;8.68;;
35839;SDS011;35514;50.504;30.500;2023-01-09T08:01:59;33.97;;;8.45;;
35839;SDS011;35514;50.504;30.500;2023-01-09T08:04:30;23.83;;;8.18;;
35839;SDS011;35514;50.504;30.500;2023-01-09T08:06:58;25.00;;;9.98;;
35839;SDS011;35514;50.504;30.500;2023-01-09T08:09:28;20.50;;;9.98;;
35839;SDS011;35514;50.504;30.500;2023-01-09T08:11:55;16.77;;;7.80;;
35839;SDS011;35514;50.504;30.500;2023-01-09T08:14:23;28.42;;;8.98;;
35839;SDS011;35514;50.504;30.500;2023-01-09T08:16:51;20.23;;;7.70;;
35839;SDS011;35514;50.504;30.500;2023-01-09T08:19:19;35.85;;;8.38;;
35839;SDS011;35514;50.504;30.500;2023-01-09T08:21:46;25.85;;;9.05;;
35839;SDS011;35514;50.504;30.500;2023-01-09T08:24:14;22.20;;;9.15;;
35839;SDS011;35514;50.504;30.500;2023-01-09T08:26:43;21.92;;;8.85;;
35839;SDS011;35514;50.504;30.500;2023-01-09T08:29:10;22.83;;;7.82;;
35839;SDS011;35514;50.504;30.500;2023-01-09T08:31:38;20.13;;;8.15;;
35839;SDS011;35514;50.504;30.500;2023-01-09T08:34:06;19.10;;;7.53;;
35839;SDS011;35514;50.504;30.500;2023-01-09T08:36:34;19.73;;;6.78;;
35839;SDS011;35514;50.504;30.500;2023-01-09T08:39:02;38.35;;;9.13;;
35839;SDS011;35514;50.504;30.500;2023-01-09T08:41:32;20.70;;;7.68;;
35839;SDS011;35514;50.504;30.500;2023-01-09T08:44:21;21.15;;;8.05;;
35839;SDS011;35514;50.504;30.500;2023-01-09T08:47:06;18.95;;;7.30;;
35839;SDS011;35514;50.504;30.500;2023-01-09T08:49:35;25.30;;;9.73;;
35839;SDS011;35514;50.504;30.500;2023-01-09T08:52:04;19.63;;;8.43;;
35839;SDS011;35514;50.504;30.500;2023-01-09T08:54:32;31.30;;;9.57;;
35839;SDS011;35514;50.504;30.500;2023-01-09T08:57:02;22.40;;;7.50;;
35839;SDS011;35514;50.504;30.500;2023-01-09T08:59:33;22.27;;;7.90;;
35839;SDS011;35514;50.504;30.500;2023-01-09T09:02:02;35.42;;;9.70;;
35839;SDS011;35514;50.504;30.500;2023-01-09T09:04:29;24.65;;;8.30;;
35839;SDS011;35514;50.504;30.500;2023-01-09T09:06:57;26.20;;;9.48;;
35839;SDS011;35514;50.504;30.500;2023-01-09T09:09:24;23.27;;;8.82;;
35839;SDS011;35514;50.504;30.500;2023-01-09T09:11:52;30.02;;;10.68;;
35839;SDS011;35514;50.504;30.500;2023-01-09T09:14:20;27.33;;;8.20;;
35839;SDS011;35514;50.504;30.500;2023-01-09T09:17:07;32.30;;;9.32;;
35839;SDS011;35514;50.504;30.500;2023-01-09T09:19:35;29.25;;;9.60;;
35839;SDS011;35514;50.504;30.500;2023-01-09T09:22:04;25.75;;;9.68;;
35839;SDS011;35514;50.504;30.500;2023-01-09T09:24:32;24.90;;;9.27;;
35839;SDS011;35514;50.504;30.500;2023-01-09T09:26:59;26.55;;;10.10;;
35839;SDS011;35514;50.504;30.500;2023-01-09T09:29:28;24.50;;;8.13;;
35839;SDS011;35514;50.504;30.500;2023-01-09T09:31:55;26.17;;;9.20;;
35839;SDS011;35514;50.504;30.500;2023-01-09T09:34:27;20.08;;;7.75;;
35839;SDS011;35514;50.504;30.500;2023-01-09T09:36:56;25.23;;;9.25;;
35839;SDS011;35514;50.504;30.500;2023-01-09T09:39:24;19.92;;;8.20;;
35839;SDS011;35514;50.504;30.500;2023-01-09T09:45:00;20.70;;;7.22;;
35839;SDS011;35514;50.504;30.500;2023-01-09T09:47:39;20.10;;;8.85;;
35839;SDS011;35514;50.504;30.500;2023-01-09T09:50:13;20.77;;;8.80;;
35839;SDS011;35514;50.504;30.500;2023-01-09T09:52:44;27.33;;;9.93;;
35839;SDS011;35514;50.504;30.500;2023-01-09T09:55:17;24.87;;;8.83;;
35839;SDS011;35514;50.504;30.500;2023-01-09T09:57:45;25.80;;;10.07;;
35839;SDS011;35514;50.504;30.500;2023-01-09T10:00:14;24.65;;;8.82;;
35839;SDS011;35514;50.504;30.500;2023-01-09T10:02:44;18.85;;;9.50;;
35839;SDS011;35514;50.504;30.500;2023-01-09T10:05:19;26.27;;;7.85;;
35839;SDS011;35514;50.504;30.500;2023-01-09T10:07:47;21.88;;;8.98;;
35839;SDS011;35514;50.504;30.500;2023-01-09T10:10:18;15.57;;;7.30;;
35839;SDS011;35514;50.504;30.500;2023-01-09T10:12:49;18.10;;;8.65;;
35839;SDS011;35514;50.504;30.500;2023-01-09T10:15:20;28.45;;;10.15;;
35839;SDS011;35514;50.504;30.500;2023-01-09T10:17:54;15.50;;;7.63;;
35839;SDS011;35514;50.504;30.500;2023-01-09T10:20:40;22.05;;;8.77;;
35839;SDS011;35514;50.504;30.500;2023-01-09T10:23:18;20.08;;;9.60;;
35839;SDS011;35514;50.504;30.500;2023-01-09T10:25:58;24.98;;;8.05;;
35839;SDS011;35514;50.504;30.500;2023-01-09T10:28:47;23.13;;;7.70;;
35839;SDS011;35514;50.504;30.500;2023-01-09T10:31:21;18.50;;;7.95;;
35839;SDS011;35514;50.504;30.500;2023-01-09T10:34:02;18.52;;;6.22;;
35839;SDS011;35514;50.504;30.500;2023-01-09T10:36:47;22.40;;;8.70;;
35839;SDS011;35514;50.504;30.500;2023-01-09T10:39:23;19.20;;;8.45;;
35839;SDS011;35514;50.504;30.500;2023-01-09T10:41:59;18.27;;;7.25;;
35839;SDS011;35514;50.504;30.500;2023-01-09T10:44:30;20.92;;;8.50;;
35839;SDS011;35514;50.504;30.500;2023-01-09T10:47:05;21.98;;;9.25;;
35839;SDS011;35514;50.504;30.500;2023-01-09T10:49:40;16.67;;;7.72;;
35839;SDS011;35514;50.504;30.500;2023-01-09T10:52:14;24.35;;;8.60;;
35839;SDS011;35514;50.504;30.500;2023-01-09T10:54:46;18.65;;;7.55;;
35839;SDS011;35514;50.504;30.500;2023-01-09T10:57:18;21.88;;;8.57;;
35839;SDS011;35514;50.504;30.500;2023-01-09T10:59:53;19.73;;;8.15;;
35839;SDS011;35514;50.504;30.500;2023-01-09T11:02:26;17.85;;;7.30;;
35839;SDS011;35514;50.504;30.500;2023-01-09T11:04:59;12.10;;;5.68;;
35839;SDS011;35514;50.504;30.500;2023-01-09T11:07:33;18.75;;;6.60;;
35839;SDS011;35514;50.504;30.500;2023-01-09T11:10:16;18.23;;;7.57;;
35839;SDS011;35514;50.504;30.500;2023-01-09T11:12:44;25.45;;;8.95;;
35839;SDS011;35514;50.504;30.500;2023-01-09T11:15:24;21.65;;;9.15;;
35839;SDS011;35514;50.504;30.500;2023-01-09T11:18:22;27.38;;;8.50;;
35839;SDS011;35514;50.504;30.500;2023-01-09T11:21:11;24.98;;;8.55;;
35839;SDS011;35514;50.504;30.500;2023-01-09T11:23:44;25.50;;;9.52;;
35839;SDS011;35514;50.504;30.500;2023-01-09T11:26:26;14.27;;;7.65;;
35839;SDS011;35514;50.504;30.500;2023-01-09T11:29:04;13.63;;;6.00;;
35839;SDS011;35514;50.504;30.500;2023-01-09T11:31:49;23.98;;;8.55;;
35839;SDS011;35514;50.504;30.500;2023-01-09T11:34:33;18.10;;;7.53;;
35839;SDS011;35514;50.504;30.500;2023-01-09T11:37:20;17.90;;;6.65;;
35839;SDS011;35514;50.504;30.500;2023-01-09T11:39:58;13.98;;;6.38;;
35839;SDS011;35514;50.504;30.500;2023-01-09T11:42:28;19.90;;;8.73;;
35839;SDS011;35514;50.504;30.500;2023-01-09T11:45:14;23.48;;;8.77;;
35839;SDS011;35514;50.504;30.500;2023-01-09T11:47:44;18.88;;;8.45;;
35839;SDS011;35514;50.504;30.500;2023-01-09T11:50:34;34.30;;;11.45;;
35839;SDS011;35514;50.504;30.500;2023-01-09T11:53:11;22.33;;;6.90;;
35839;SDS011;35514;50.504;30.500;2023-01-09T11:55:52;16.55;;;7.80;;
35839;SDS011;35514;50.504;30.500;2023-01-09T11:58:22;22.15;;;7.97;;
35839;SDS011;35514;50.504;30.500;2023-01-09T12:00:55;28.27;;;8.45;;
35839;SDS011;35514;50.504;30.500;2023-01-09T12:07:01;25.95;;;8.82;;
35839;SDS011;35514;50.504;30.500;2023-01-09T12:09:35;21.38;;;9.50;;
35839;SDS011;35514;50.504;30.500;2023-01-09T12:12:09;23.77;;;8.90;;
35839;SDS011;35514;50.504;30.500;2023-01-09T12:14:47;27.40;;;9.38;;
35839;SDS011;35514;50.504;30.500;2023-01-09T12:17:38;18.17;;;8.85;;
35839;SDS011;35514;50.504;30.500;2023-01-09T12:23:06;21.38;;;9.90;;
35839;SDS011;35514;50.504;30.500;2023-01-09T12:25:42;23.52;;;8.50;;
35839;SDS011;35514;50.504;30.500;2023-01-09T12:28:29;31.50;;;10.45;;
35839;SDS011;35514;50.504;30.500;2023-01-09T12:31:07;20.98;;;7.97;;
35839;SDS011;35514;50.504;30.500;2023-01-09T12:33:38;24.75;;;8.73;;
35839;SDS011;35514;50.504;30.500;2023-01-09T12:36:09;19.52;;;7.40;;
35839;SDS011;35514;50.504;30.500;2023-01-09T12:38:41;31.67;;;9.65;;
35839;SDS011;35514;50.504;30.500;2023-01-09T12:44:03;21.67;;;9.40;;
35839;SDS011;35514;50.504;30.500;2023-01-09T12:46:36;22.35;;;9.50;;
35839;SDS011;35514;50.504;30.500;2023-01-09T12:49:13;23.58;;;9.43;;
35839;SDS011;35514;50.504;30.500;2023-01-09T12:51:43;21.15;;;7.82;;
35839;SDS011;35514;50.504;30.500;2023-01-09T12:54:28;19.70;;;9.27;;
35839;SDS011;35514;50.504;30.500;2023-01-09T12:57:18;20.80;;;8.50;;
35839;SDS011;35514;50.504;30.500;2023-01-09T13:00:11;22.02;;;8.88;;
35839;SDS011;35514;50.504;30.500;2023-01-09T13:02:48;32.35;;;8.48;;
35839;SDS011;35514;50.504;30.500;2023-01-09T13:05:41;13.43;;;6.38;;
35839;SDS011;35514;50.504;30.500;2023-01-09T13:08:15;23.15;;;9.13;;
35839;SDS011;35514;50.504;30.500;2023-01-09T13:13:45;32.03;;;9.95;;
35839;SDS011;35514;50.504;30.500;2023-01-09T13:16:29;24.65;;;9.68;;
35839;SDS011;35514;50.504;30.500;2023-01-09T13:19:04;28.38;;;9.65;;
35839;SDS011;35514;50.504;30.500;2023-01-09T13:21:34;33.10;;;10.43;;
35839;SDS011;35514;50.504;30.500;2023-01-09T13:24:05;22.42;;;7.75;;
35839;SDS011;35514;50.504;30.500;2023-01-09T13:26:41;26.67;;;9.48;;
35839;SDS011;35514;50.504;30.500;2023-01-09T13:32:51;14.88;;;6.95;;
35839;SDS011;35514;50.504;30.500;2023-01-09T13:35:28;40.97;;;8.23;;
35839;SDS011;35514;50.504;30.500;2023-01-09T13:38:13;22.17;;;8.77;;
35839;SDS011;35514;50.504;30.500;2023-01-09T13:40:53;25.85;;;8.38;;
35839;SDS011;35514;50.504;30.500;2023-01-09T13:47:24;23.52;;;8.68;;
35839;SDS011;35514;50.504;30.500;2023-01-09T13:58:30;32.00;;;9.85;;
35839;SDS011;35514;50.504;30.500;2023-01-09T14:09:35;24.13;;;8.07;;
35839;SDS011;35514;50.504;30.500;2023-01-09T14:12:04;21.55;;;9.23;;
35839;SDS011;35514;50.504;30.500;2023-01-09T14:14:42;22.88;;;9.20;;
35839;SDS011;35514;50.504;30.500;2023-01-09T14:17:31;22.65;;;10.48;;
35839;SDS011;35514;50.504;30.500;2023-01-09T14:20:03;27.95;;;10.82;;
35839;SDS011;35514;50.504;30.500;2023-01-09T14:22:32;23.70;;;9.23;;
35839;SDS011;35514;50.504;30.500;2023-01-09T14:25:21;26.40;;;9.70;;
35839;SDS011;35514;50.504;30.500;2023-01-09T14:30:38;22.63;;;8.75;;
35839;SDS011;35514;50.504;30.500;2023-01-09T14:33:29;18.85;;;8.10;;
35839;SDS011;35514;50.504;30.500;2023-01-09T14:36:11;22.50;;;8.68;;
35839;SDS011;35514;50.504;30.500;2023-01-09T14:38:42;21.92;;;8.57;;
35839;SDS011;35514;50.504;30.500;2023-01-09T14:41:16;25.13;;;8.95;;
35839;SDS011;35514;50.504;30.500;2023-01-09T14:43:51;21.33;;;9.95;;
35839;SDS011;35514;50.504;30.500;2023-01-09T14:48:53;15.57;;;8.00;;
35839;SDS011;35514;50.504;30.500;2023-01-09T14:51:23;30.20;;;9.43;;
35839;SDS011;35514;50.504;30.500;2023-01-09T14:53:52;25.35;;;9.32;;
35839;SDS011;35514;50.504;30.500;2023-01-09T14:56:23;27.35;;;10.05;;
35839;SDS011;35514;50.504;30.500;2023-01-09T14:59:02;21.13;;;8.88;;
35839;SDS011;35514;50.504;30.500;2023-01-09T15:01:29;23.17;;;9.55;;
35839;SDS011;35514;50.504;30.500;2023-01-09T15:04:00;30.73;;;10.68;;
35839;SDS011;35514;50.504;30.500;2023-01-09T15:06:30;29.30;;;9.40;;
35839;SDS011;35514;50.504;30.500;2023-01-09T15:09:13;38.33;;;10.70;;
35839;SDS011;35514;50.504;30.500;2023-01-09T15:11:47;23.45;;;11.18;;
35839;SDS011;35514;50.504;30.500;2023-01-09T15:14:24;25.80;;;9.82;;
35839;SDS011;35514;50.504;30.500;2023-01-09T15:16:59;22.25;;;8.48;;
35839;SDS011;35514;50.504;30.500;2023-01-09T15:19:31;27.33;;;9.93;;
35839;SDS011;35514;50.504;30.500;2023-01-09T15:22:02;31.33;;;10.45;;
35839;SDS011;35514;50.504;30.500;2023-01-09T15:24:31;31.52;;;11.32;;
35839;SDS011;35514;50.504;30.500;2023-01-09T15:27:00;21.60;;;10.48;;
35839;SDS011;35514;50.504;30.500;2023-01-09T15:29:28;24.05;;;10.00;;
35839;SDS011;35514;50.504;30.500;2023-01-09T15:31:57;28.45;;;9.77;;
35839;SDS011;35514;50.504;30.500;2023-01-09T15:34:29;30.10;;;9.60;;
35839;SDS011;35514;50.504;30.500;2023-01-09T15:36:58;42.20;;;11.32;;
35839;SDS011;35514;50.504;30.500;2023-01-09T15:39:27;27.52;;;10.77;;